Time;durP1;ratioP1;P1;durP2;ratioP2;P2;SDS_P1;SDS_P2;PMS_P1;PMS_P2;Temp;Humidity;BMP_temperature;BMP_pressure;BME280_temperature;BME280_humidity;BME280_pressure;Samples;Min_cycle;Max_cycle;Signal;HPM_P1;HPM_P2
2022/07/18 00:01:58;;;;;;;6.38;3.90;;;;;;;;;;4953878;28;20028;-67
2022/07/18 00:04:25;;;;;;;13.70;4.40;;;;;;;;;;4953957;29;20035;-67
2022/07/18 00:06:52;;;;;;;7.50;3.88;;;;;;;;;;4953671;29;20430;-68
2022/07/18 00:09:19;;;;;;;6.47;3.97;;;;;;;;;;4953799;28;20046;-69
2022/07/18 00:11:45;;;;;;;9.25;4.13;;;;;;;;;;4953314;28;20031;-72
2022/07/18 00:14:11;;;;;;;11.52;4.32;;;;;;;;;;4953785;28;20039;-68
2022/07/18 00:16:37;;;;;;;10.30;4.10;;;;;;;;;;4953528;28;20082;-71
2022/07/18 00:19:05;;;;;;;19.48;5.40;;;;;;;;;;4953702;28;20034;-68
2022/07/18 00:21:32;;;;;;;14.13;4.40;;;;;;;;;;4953707;29;20027;-68
2022/07/18 00:23:57;;;;;;;9.05;4.03;;;;;;;;;;4953633;28;20023;-72
2022/07/18 00:26:23;;;;;;;10.15;4.70;;;;;;;;;;4953735;28;20046;-71
2022/07/18 00:28:49;;;;;;;13.68;4.85;;;;;;;;;;4936528;28;20039;-73
2022/07/18 00:31:15;;;;;;;9.65;4.68;;;;;;;;;;4953340;29;20106;-69
2022/07/18 00:33:41;;;;;;;16.85;5.20;;;;;;;;;;4953861;29;20067;-70
2022/07/18 00:36:07;;;;;;;9.43;4.85;;;;;;;;;;4953724;29;20054;-70
2022/07/18 00:38:33;;;;;;;6.40;4.47;;;;;;;;;;4953586;28;20031;-72
2022/07/18 00:40:59;;;;;;;6.85;3.97;;;;;;;;;;4953504;28;20031;-71
2022/07/18 00:43:25;;;;;;;8.90;4.43;;;;;;;;;;4953535;28;20039;-72
2022/07/18 00:45:52;;;;;;;11.05;5.00;;;;;;;;;;4953170;29;20023;-73
2022/07/18 00:48:18;;;;;;;7.63;4.72;;;;;;;;;;4953283;28;20110;-67
2022/07/18 00:50:45;;;;;;;9.25;5.00;;;;;;;;;;4953412;28;20494;-67
2022/07/18 00:53:11;;;;;;;10.93;4.57;;;;;;;;;;4953552;28;20039;-68
2022/07/18 00:55:39;;;;;;;10.68;4.93;;;;;;;;;;4953580;28;20031;-69
2022/07/18 00:58:05;;;;;;;9.65;5.03;;;;;;;;;;4953400;28;20488;-69
2022/07/18 01:03:15;;;;;;;10.35;5.10;;;;;;;;;;4953249;28;20031;-68
2022/07/18 01:05:41;;;;;;;8.43;4.78;;;;;;;;;;4953143;28;20042;-69
2022/07/18 01:08:07;;;;;;;6.60;4.32;;;;;;;;;;4953865;28;20494;-68
2022/07/18 01:10:32;;;;;;;9.80;5.18;;;;;;;;;;4956801;29;20102;-67
2022/07/18 01:12:58;;;;;;;7.05;5.25;;;;;;;;;;4956593;28;20035;-67
2022/07/18 01:15:24;;;;;;;9.73;5.47;;;;;;;;;;4955734;28;20383;-66
2022/07/18 01:17:50;;;;;;;7.47;5.20;;;;;;;;;;4956564;28;20039;-67
2022/07/18 01:20:16;;;;;;;8.05;5.22;;;;;;;;;;4956594;28;20154;-67
2022/07/18 01:22:42;;;;;;;13.25;5.45;;;;;;;;;;4956738;28;20106;-67
2022/07/18 01:25:09;;;;;;;11.15;5.30;;;;;;;;;;4956392;28;20226;-66
2022/07/18 01:27:36;;;;;;;8.65;5.07;;;;;;;;;;4956454;28;20027;-67
2022/07/18 01:30:03;;;;;;;7.28;4.18;;;;;;;;;;4956437;28;20038;-69
2022/07/18 01:32:29;;;;;;;10.00;4.47;;;;;;;;;;4956419;28;20027;-68
2022/07/18 01:34:55;;;;;;;9.93;4.95;;;;;;;;;;4956668;29;20058;-66
2022/07/18 01:37:21;;;;;;;11.65;5.32;;;;;;;;;;4956665;28;20060;-66
2022/07/18 01:39:47;;;;;;;11.07;4.82;;;;;;;;;;4956339;28;20027;-67
2022/07/18 01:42:14;;;;;;;8.75;4.35;;;;;;;;;;4957366;28;20046;-67
2022/07/18 01:44:40;;;;;;;5.10;3.80;;;;;;;;;;4956967;28;20585;-67
2022/07/18 01:47:08;;;;;;;8.30;4.70;;;;;;;;;;4956251;28;20070;-68
2022/07/18 01:49:35;;;;;;;10.48;4.65;;;;;;;;;;4956174;28;20024;-73
2022/07/18 01:52:01;;;;;;;6.10;3.88;;;;;;;;;;4956138;28;20437;-71
2022/07/18 01:54:30;;;;;;;6.93;4.38;;;;;;;;;;4956001;28;20031;-66
2022/07/18 01:56:59;;;;;;;11.02;4.43;;;;;;;;;;4956214;28;20029;-69
2022/07/18 01:59:25;;;;;;;9.48;4.32;;;;;;;;;;4956228;28;20030;-66
2022/07/18 02:01:51;;;;;;;8.60;4.20;;;;;;;;;;4955946;28;20047;-73
2022/07/18 02:04:17;;;;;;;11.90;4.85;;;;;;;;;;4955748;28;20394;-72
2022/07/18 02:06:43;;;;;;;8.63;4.68;;;;;;;;;;4955587;28;20031;-69
2022/07/18 02:09:09;;;;;;;10.75;5.00;;;;;;;;;;4955604;28;20035;-72
2022/07/18 02:11:36;;;;;;;12.40;5.57;;;;;;;;;;4955590;28;20213;-69
2022/07/18 02:14:04;;;;;;;14.43;5.93;;;;;;;;;;4955659;28;20098;-68
2022/07/18 02:16:30;;;;;;;17.02;5.65;;;;;;;;;;4955576;29;20031;-71
2022/07/18 02:18:56;;;;;;;17.92;5.65;;;;;;;;;;4955532;29;20055;-72
2022/07/18 02:21:23;;;;;;;11.10;5.28;;;;;;;;;;4954839;28;20541;-69
2022/07/18 02:23:50;;;;;;;16.88;5.35;;;;;;;;;;4955259;29;20556;-70
2022/07/18 02:26:17;;;;;;;8.57;5.15;;;;;;;;;;4955417;29;20043;-70
2022/07/18 02:28:43;;;;;;;9.82;5.30;;;;;;;;;;4955025;28;20027;-68
2022/07/18 02:31:09;;;;;;;15.45;6.57;;;;;;;;;;4955055;28;20094;-72
2022/07/18 02:33:35;;;;;;;8.43;4.95;;;;;;;;;;4954961;28;20035;-68
2022/07/18 02:36:00;;;;;;;10.18;4.90;;;;;;;;;;4955100;28;20042;-67
2022/07/18 02:38:26;;;;;;;6.90;4.93;;;;;;;;;;4955231;29;20023;-68
2022/07/18 02:40:52;;;;;;;10.32;4.47;;;;;;;;;;4955044;28;20114;-68
2022/07/18 02:43:18;;;;;;;11.13;5.15;;;;;;;;;;4955085;28;20035;-67
2022/07/18 02:45:44;;;;;;;5.72;4.25;;;;;;;;;;4954930;29;20031;-67
2022/07/18 02:48:10;;;;;;;12.00;4.32;;;;;;;;;;4937702;29;20034;-68
2022/07/18 02:50:36;;;;;;;6.50;3.70;;;;;;;;;;4954799;28;20032;-67
2022/07/18 02:53:01;;;;;;;5.43;4.00;;;;;;;;;;4954931;28;20440;-66
2022/07/18 02:55:27;;;;;;;6.30;3.78;;;;;;;;;;4954653;28;20035;-66
2022/07/18 02:57:53;;;;;;;7.57;3.85;;;;;;;;;;4955182;28;20023;-67
2022/07/18 03:00:19;;;;;;;6.15;4.15;;;;;;;;;;4954767;28;20389;-67
2022/07/18 03:02:45;;;;;;;6.28;4.40;;;;;;;;;;4954614;28;20120;-69
2022/07/18 03:05:12;;;;;;;7.40;4.25;;;;;;;;;;4954079;28;20042;-68
2022/07/18 03:07:38;;;;;;;10.70;4.50;;;;;;;;;;4954278;28;20038;-68
2022/07/18 03:10:05;;;;;;;6.88;4.60;;;;;;;;;;4954321;28;20042;-68
2022/07/18 03:12:32;;;;;;;6.82;4.63;;;;;;;;;;4954425;29;20023;-67
2022/07/18 03:14:57;;;;;;;6.07;4.28;;;;;;;;;;4954394;29;20383;-67
2022/07/18 03:17:23;;;;;;;9.23;4.68;;;;;;;;;;4954595;28;20075;-66
2022/07/18 03:19:49;;;;;;;6.63;4.43;;;;;;;;;;4953959;28;20064;-67
2022/07/18 03:22:15;;;;;;;6.57;4.20;;;;;;;;;;4954249;28;20114;-67
2022/07/18 03:24:41;;;;;;;12.52;4.90;;;;;;;;;;4954366;28;20023;-67
2022/07/18 03:27:07;;;;;;;12.15;5.38;;;;;;;;;;4954231;28;20420;-70
2022/07/18 03:29:33;;;;;;;6.70;4.40;;;;;;;;;;4954351;28;20122;-68
2022/07/18 03:31:58;;;;;;;8.85;4.35;;;;;;;;;;4952806;28;20050;-68
2022/07/18 03:34:24;;;;;;;12.05;4.85;;;;;;;;;;4953829;28;20066;-67
2022/07/18 03:36:50;;;;;;;9.20;4.90;;;;;;;;;;4953936;28;20027;-68
2022/07/18 03:39:16;;;;;;;7.93;4.53;;;;;;;;;;4953814;28;20054;-68
2022/07/18 03:41:42;;;;;;;8.45;4.35;;;;;;;;;;4954138;28;20453;-71
2022/07/18 03:44:08;;;;;;;13.85;4.68;;;;;;;;;;4953625;28;20039;-69
2022/07/18 03:46:34;;;;;;;13.88;4.78;;;;;;;;;;4953075;28;20074;-68
2022/07/18 03:49:00;;;;;;;15.35;5.38;;;;;;;;;;4951579;28;20403;-68
2022/07/18 03:51:26;;;;;;;6.32;3.80;;;;;;;;;;4952356;28;20039;-69
2022/07/18 03:53:52;;;;;;;3.95;3.30;;;;;;;;;;4952373;28;20094;-68
2022/07/18 03:56:18;;;;;;;11.65;4.10;;;;;;;;;;4951849;28;20024;-68
2022/07/18 03:58:44;;;;;;;6.10;3.83;;;;;;;;;;4951645;28;20106;-68
2022/07/18 04:01:10;;;;;;;9.93;3.70;;;;;;;;;;4951845;28;20035;-69
2022/07/18 04:03:36;;;;;;;6.97;3.42;;;;;;;;;;4951681;29;20503;-71
2022/07/18 04:06:02;;;;;;;6.55;3.50;;;;;;;;;;4952284;28;20090;-67
2022/07/18 04:08:27;;;;;;;5.80;3.00;;;;;;;;;;4951222;28;20027;-66
2022/07/18 04:10:54;;;;;;;8.18;3.88;;;;;;;;;;4951673;28;20097;-70
2022/07/18 04:13:19;;;;;;;6.13;2.60;;;;;;;;;;4953282;28;20063;-68
2022/07/18 04:15:46;;;;;;;4.53;2.90;;;;;;;;;;4954433;28;20475;-66
2022/07/18 04:18:12;;;;;;;8.60;3.03;;;;;;;;;;4954008;28;20166;-68
2022/07/18 04:20:41;;;;;;;6.80;2.97;;;;;;;;;;4954195;28;20118;-70
2022/07/18 04:23:08;;;;;;;8.65;2.60;;;;;;;;;;4954179;28;20489;-69
2022/07/18 04:25:37;;;;;;;6.65;2.80;;;;;;;;;;4954155;28;20031;-70
2022/07/18 04:28:04;;;;;;;6.85;2.40;;;;;;;;;;4954491;28;20031;-67
2022/07/18 04:30:30;;;;;;;4.65;2.13;;;;;;;;;;4954148;28;20047;-67
2022/07/18 04:32:56;;;;;;;4.68;2.50;;;;;;;;;;4954396;28;20039;-68
2022/07/18 04:35:23;;;;;;;4.20;2.30;;;;;;;;;;4954149;28;20487;-67
2022/07/18 04:37:50;;;;;;;3.90;2.38;;;;;;;;;;4953933;28;20031;-68
2022/07/18 04:40:16;;;;;;;6.35;2.35;;;;;;;;;;4953935;28;20110;-67
2022/07/18 04:42:42;;;;;;;6.65;2.03;;;;;;;;;;4954186;28;20475;-68
2022/07/18 04:45:09;;;;;;;3.03;2.10;;;;;;;;;;4957587;28;20027;-69
2022/07/18 04:47:35;;;;;;;6.40;2.40;;;;;;;;;;4957713;28;20031;-69
2022/07/18 04:50:01;;;;;;;4.20;2.40;;;;;;;;;;4957516;28;20470;-66
2022/07/18 04:52:35;;;;;;;3.55;1.90;;;;;;;;;;4957623;28;20032;-68
2022/07/18 04:55:01;;;;;;;5.53;2.20;;;;;;;;;;4957387;28;20031;-69
2022/07/18 04:57:27;;;;;;;6.20;2.25;;;;;;;;;;4957589;28;20031;-68
2022/07/18 04:59:53;;;;;;;3.75;2.10;;;;;;;;;;4957209;28;20504;-66
2022/07/18 05:02:18;;;;;;;5.43;2.60;;;;;;;;;;4957829;28;20457;-68
2022/07/18 05:04:44;;;;;;;3.55;2.50;;;;;;;;;;4957492;28;20474;-73
2022/07/18 05:07:10;;;;;;;5.18;2.55;;;;;;;;;;4957146;28;20034;-71
2022/07/18 05:09:36;;;;;;;5.90;2.10;;;;;;;;;;4956645;28;20043;-71
2022/07/18 05:12:02;;;;;;;5.47;2.35;;;;;;;;;;4956657;28;20059;-73
2022/07/18 05:14:27;;;;;;;6.50;2.33;;;;;;;;;;4957101;28;20122;-74
2022/07/18 05:16:53;;;;;;;4.25;2.50;;;;;;;;;;4957142;28;20023;-73
2022/07/18 05:19:19;;;;;;;5.60;2.13;;;;;;;;;;4957056;29;20031;-68
2022/07/18 05:21:45;;;;;;;3.92;2.17;;;;;;;;;;4957324;28;20034;-69
2022/07/18 05:24:11;;;;;;;4.10;2.20;;;;;;;;;;4956167;28;20196;-73
2022/07/18 05:26:37;;;;;;;4.03;2.30;;;;;;;;;;4957206;28;20363;-71
2022/07/18 05:29:03;;;;;;;6.50;2.00;;;;;;;;;;4956886;28;20031;-69
2022/07/18 05:31:29;;;;;;;4.32;2.10;;;;;;;;;;4939667;29;20047;-73
2022/07/18 05:33:55;;;;;;;7.55;2.33;;;;;;;;;;4956604;28;20050;-70
2022/07/18 05:36:21;;;;;;;4.95;2.28;;;;;;;;;;4956567;28;20434;-72
2022/07/18 05:38:47;;;;;;;5.18;2.05;;;;;;;;;;4956676;28;20039;-70
2022/07/18 05:41:13;;;;;;;4.85;2.60;;;;;;;;;;4956396;28;20031;-73
2022/07/18 05:43:38;;;;;;;5.28;2.42;;;;;;;;;;4956318;28;20039;-74
2022/07/18 05:46:05;;;;;;;4.47;2.30;;;;;;;;;;4955996;28;20019;-72
2022/07/18 05:48:31;;;;;;;7.10;2.25;;;;;;;;;;4956368;28;20038;-73
2022/07/18 05:50:57;;;;;;;5.50;2.28;;;;;;;;;;4956185;28;20023;-75
2022/07/18 05:53:22;;;;;;;4.72;2.17;;;;;;;;;;4956286;28;20394;-73
2022/07/18 05:55:48;;;;;;;5.65;2.85;;;;;;;;;;4954914;28;20031;-71
2022/07/18 05:58:14;;;;;;;3.05;2.30;;;;;;;;;;4956221;28;20039;-73
2022/07/18 06:00:40;;;;;;;7.35;2.53;;;;;;;;;;4953015;28;20486;-72
2022/07/18 06:03:06;;;;;;;5.05;2.20;;;;;;;;;;4956216;29;20054;-70
2022/07/18 06:05:32;;;;;;;4.85;2.03;;;;;;;;;;4955792;29;20031;-70
2022/07/18 06:07:58;;;;;;;5.07;2.40;;;;;;;;;;4955673;29;20390;-74
2022/07/18 06:10:25;;;;;;;7.10;2.35;;;;;;;;;;4953490;28;20034;-71
2022/07/18 06:12:52;;;;;;;4.93;2.70;;;;;;;;;;4963253;28;20063;-70
2022/07/18 06:15:18;;;;;;;5.78;2.25;;;;;;;;;;4973254;28;20027;-70
2022/07/18 06:17:44;;;;;;;4.35;2.13;;;;;;;;;;4974117;28;20469;-70
2022/07/18 06:20:10;;;;;;;5.85;2.13;;;;;;;;;;4970572;28;20041;-71
2022/07/18 06:22:36;;;;;;;3.50;1.88;;;;;;;;;;4946247;29;20087;-71
2022/07/18 06:25:03;;;;;;;3.42;2.20;;;;;;;;;;4942615;28;20031;-70
2022/07/18 06:27:29;;;;;;;6.43;2.65;;;;;;;;;;4955342;28;20063;-68
2022/07/18 06:29:55;;;;;;;7.55;2.10;;;;;;;;;;4957309;28;20415;-70
2022/07/18 06:32:21;;;;;;;6.82;2.33;;;;;;;;;;4965264;28;20101;-71
2022/07/18 06:34:46;;;;;;;6.30;2.85;;;;;;;;;;4954553;29;20434;-69
2022/07/18 06:37:12;;;;;;;6.30;2.80;;;;;;;;;;4953420;28;20062;-72
2022/07/18 06:39:38;;;;;;;5.10;2.35;;;;;;;;;;4953888;28;20466;-73
2022/07/18 06:42:04;;;;;;;5.60;2.60;;;;;;;;;;4954584;28;20035;-72
2022/07/18 06:44:31;;;;;;;7.53;2.30;;;;;;;;;;4947480;28;20100;-71
2022/07/18 06:46:59;;;;;;;4.13;2.30;;;;;;;;;;4939546;28;20480;-71
2022/07/18 06:49:25;;;;;;;4.72;2.72;;;;;;;;;;4973528;28;20029;-74
2022/07/18 06:51:51;;;;;;;5.38;2.80;;;;;;;;;;4972947;28;20500;-70
2022/07/18 06:54:17;;;;;;;8.23;3.15;;;;;;;;;;4973048;28;20023;-70
2022/07/18 06:56:43;;;;;;;8.52;2.90;;;;;;;;;;4973750;28;20378;-72
2022/07/18 06:59:09;;;;;;;6.32;3.00;;;;;;;;;;4973605;28;20029;-72
2022/07/18 07:01:35;;;;;;;6.40;3.20;;;;;;;;;;4973280;28;20190;-70
2022/07/18 07:04:00;;;;;;;9.00;3.03;;;;;;;;;;4963633;28;20067;-71
2022/07/18 07:06:26;;;;;;;5.80;3.38;;;;;;;;;;4973445;28;20030;-73
2022/07/18 07:08:52;;;;;;;7.18;3.17;;;;;;;;;;4973225;28;20038;-73
2022/07/18 07:11:18;;;;;;;6.78;3.40;;;;;;;;;;4973178;28;20053;-72
2022/07/18 07:13:44;;;;;;;11.32;4.03;;;;;;;;;;4973369;28;20033;-71
2022/07/18 07:16:10;;;;;;;6.78;3.72;;;;;;;;;;4972499;28;20144;-73
2022/07/18 07:18:35;;;;;;;5.68;3.50;;;;;;;;;;4974763;28;20054;-73
2022/07/18 07:21:02;;;;;;;6.78;4.15;;;;;;;;;;4978607;28;20038;-72
2022/07/18 07:23:27;;;;;;;7.03;4.10;;;;;;;;;;4974046;28;20034;-72
2022/07/18 07:25:54;;;;;;;6.78;4.07;;;;;;;;;;4973261;28;20469;-70
2022/07/18 07:28:20;;;;;;;8.43;3.85;;;;;;;;;;4972608;28;20027;-70
2022/07/18 07:30:46;;;;;;;8.30;3.45;;;;;;;;;;4972812;28;20351;-73
2022/07/18 07:33:12;;;;;;;6.00;3.80;;;;;;;;;;4972349;28;20027;-72
2022/07/18 07:35:38;;;;;;;10.80;3.70;;;;;;;;;;4972741;28;20058;-72
2022/07/18 07:38:04;;;;;;;7.63;3.72;;;;;;;;;;4973080;28;20026;-72
2022/07/18 07:40:30;;;;;;;6.00;3.45;;;;;;;;;;4971854;28;20061;-71
2022/07/18 07:43:07;;;;;;;7.13;3.40;;;;;;;;;;4973024;28;20026;-71
2022/07/18 07:45:34;;;;;;;8.40;3.92;;;;;;;;;;4972678;28;20065;-74
2022/07/18 07:48:00;;;;;;;4.03;3.53;;;;;;;;;;4972398;28;20186;-71
2022/07/18 07:50:26;;;;;;;5.88;4.30;;;;;;;;;;4972169;28;20042;-69
2022/07/18 07:52:51;;;;;;;9.27;3.83;;;;;;;;;;4972728;28;20385;-72
2022/07/18 07:55:17;;;;;;;9.65;4.60;;;;;;;;;;4971835;28;20031;-73
2022/07/18 07:57:43;;;;;;;8.07;4.68;;;;;;;;;;4972785;28;20035;-71
2022/07/18 08:00:09;;;;;;;8.13;4.00;;;;;;;;;;4972568;28;20038;-70
2022/07/18 08:02:57;;;;;;;7.85;4.18;;;;;;;;;;4971529;28;20469;-71
2022/07/18 08:05:23;;;;;;;6.10;3.33;;;;;;;;;;4971914;28;20038;-73
2022/07/18 08:07:49;;;;;;;6.63;3.97;;;;;;;;;;4971590;28;20045;-73
2022/07/18 08:10:16;;;;;;;6.55;3.50;;;;;;;;;;4954377;28;20481;-72
2022/07/18 08:12:42;;;;;;;11.13;3.90;;;;;;;;;;4951711;28;20023;-72
2022/07/18 08:15:09;;;;;;;5.10;3.88;;;;;;;;;;4952986;29;20479;-72
2022/07/18 08:17:34;;;;;;;4.40;3.53;;;;;;;;;;4966361;28;20466;-72
2022/07/18 08:20:00;;;;;;;9.40;4.53;;;;;;;;;;4974431;28;20042;-71
2022/07/18 08:22:26;;;;;;;5.65;3.90;;;;;;;;;;4976377;28;20031;-72
2022/07/18 08:24:52;;;;;;;9.63;4.95;;;;;;;;;;4954732;28;20471;-71
2022/07/18 08:27:18;;;;;;;7.43;4.05;;;;;;;;;;4956138;29;20113;-72
2022/07/18 08:29:44;;;;;;;6.95;3.97;;;;;;;;;;4956395;29;20031;-72
2022/07/18 08:32:09;;;;;;;9.98;4.53;;;;;;;;;;4965775;28;20042;-72
2022/07/18 08:34:35;;;;;;;5.93;3.55;;;;;;;;;;4975348;28;20039;-73
2022/07/18 08:37:01;;;;;;;5.50;3.33;;;;;;;;;;4975493;28;20019;-73
2022/07/18 08:39:27;;;;;;;7.78;3.75;;;;;;;;;;4974818;28;20030;-72
2022/07/18 08:41:54;;;;;;;7.32;3.75;;;;;;;;;;4975433;28;20037;-71
2022/07/18 08:44:21;;;;;;;5.75;3.65;;;;;;;;;;4971728;28;20062;-74
2022/07/18 08:46:51;;;;;;;8.57;3.80;;;;;;;;;;4956127;29;20019;-71
2022/07/18 08:49:17;;;;;;;12.07;3.70;;;;;;;;;;4956310;29;20043;-73
2022/07/18 08:51:44;;;;;;;10.60;4.25;;;;;;;;;;4963822;28;20469;-73
2022/07/18 08:54:10;;;;;;;5.72;3.42;;;;;;;;;;4974077;28;20034;-74
2022/07/18 08:56:36;;;;;;;8.45;3.50;;;;;;;;;;4975104;28;20023;-73
2022/07/18 08:59:03;;;;;;;6.97;3.60;;;;;;;;;;4975011;28;20497;-72
2022/07/18 09:01:32;;;;;;;8.75;3.97;;;;;;;;;;4974530;28;20038;-74
2022/07/18 09:04:18;;;;;;;8.02;3.72;;;;;;;;;;4975391;28;20467;-73
2022/07/18 09:06:45;;;;;;;6.78;3.25;;;;;;;;;;4936842;29;20479;-72
2022/07/18 09:09:13;;;;;;;4.65;3.38;;;;;;;;;;4936503;29;20028;-72
2022/07/18 09:11:53;;;;;;;9.07;3.50;;;;;;;;;;4955246;28;20154;-73
2022/07/18 09:14:40;;;;;;;6.25;3.00;;;;;;;;;;4955785;28;20094;-75
2022/07/18 09:17:15;;;;;;;5.13;2.60;;;;;;;;;;4955769;28;20137;-73
2022/07/18 09:19:55;;;;;;;6.03;3.22;;;;;;;;;;4955488;28;20038;-71
2022/07/18 09:22:24;;;;;;;7.97;3.55;;;;;;;;;;4963401;28;20117;-75
2022/07/18 09:25:08;;;;;;;7.60;3.03;;;;;;;;;;4963302;28;20050;-76
2022/07/18 09:27:37;;;;;;;3.47;2.20;;;;;;;;;;4955360;28;20027;-72
2022/07/18 09:30:25;;;;;;;3.80;2.47;;;;;;;;;;4954852;28;20098;-73
2022/07/18 09:33:12;;;;;;;4.93;2.40;;;;;;;;;;4955444;28;20062;-73
2022/07/18 09:35:49;;;;;;;4.43;2.50;;;;;;;;;;4953112;28;20517;-73
2022/07/18 09:38:23;;;;;;;4.13;2.38;;;;;;;;;;4953271;28;20147;-73
2022/07/18 09:40:54;;;;;;;6.55;2.28;;;;;;;;;;4953438;28;20039;-74
2022/07/18 09:43:22;;;;;;;3.40;2.28;;;;;;;;;;4953484;28;20046;-72
2022/07/18 09:45:56;;;;;;;4.20;2.42;;;;;;;;;;4952374;28;20082;-72
2022/07/18 09:48:26;;;;;;;3.60;2.30;;;;;;;;;;4960020;28;20116;-75
2022/07/18 09:50:55;;;;;;;4.30;2.40;;;;;;;;;;4972862;28;20026;-71
2022/07/18 09:53:31;;;;;;;3.92;2.30;;;;;;;;;;4975630;28;20041;-71
2022/07/18 09:55:59;;;;;;;4.65;2.58;;;;;;;;;;4975449;28;20474;-70
2022/07/18 09:58:27;;;;;;;3.40;2.40;;;;;;;;;;4975446;28;20080;-70
2022/07/18 10:00:55;;;;;;;7.47;2.38;;;;;;;;;;4965502;28;20055;-71
2022/07/18 10:03:22;;;;;;;4.40;2.35;;;;;;;;;;4954643;28;20690;-71
2022/07/18 10:05:51;;;;;;;3.85;2.65;;;;;;;;;;4954340;28;20619;-71
2022/07/18 10:08:19;;;;;;;4.00;2.40;;;;;;;;;;4955997;28;20054;-72
2022/07/18 10:10:47;;;;;;;7.03;2.72;;;;;;;;;;4956309;28;20577;-72
2022/07/18 10:13:14;;;;;;;4.47;2.47;;;;;;;;;;4955965;28;20027;-71
2022/07/18 10:15:42;;;;;;;10.07;2.50;;;;;;;;;;4956025;29;20032;-71
2022/07/18 10:18:11;;;;;;;5.68;2.05;;;;;;;;;;4955714;28;20031;-75
2022/07/18 10:20:40;;;;;;;4.22;2.40;;;;;;;;;;4955760;28;20462;-74
2022/07/18 10:23:14;;;;;;;6.28;2.83;;;;;;;;;;4955838;28;20027;-75
2022/07/18 10:25:40;;;;;;;6.32;2.65;;;;;;;;;;4955623;29;20046;-74
2022/07/18 10:28:11;;;;;;;5.43;2.60;;;;;;;;;;4955717;28;20390;-74
2022/07/18 10:30:42;;;;;;;4.13;2.60;;;;;;;;;;4955503;28;20043;-73
2022/07/18 10:33:37;;;;;;;6.18;2.40;;;;;;;;;;4955207;28;20035;-74
2022/07/18 10:36:14;;;;;;;13.48;2.63;;;;;;;;;;4955496;28;20039;-73
2022/07/18 10:39:14;;;;;;;5.65;2.42;;;;;;;;;;4955451;28;20043;-76
2022/07/18 10:41:43;;;;;;;4.60;2.60;;;;;;;;;;4954908;28;20482;-74
2022/07/18 10:44:29;;;;;;;4.20;2.45;;;;;;;;;;4955107;28;20715;-74
2022/07/18 10:49:57;;;;;;;5.28;2.17;;;;;;;;;;4955130;28;20398;-74
2022/07/18 10:52:23;;;;;;;4.20;2.25;;;;;;;;;;4955168;28;20094;-74
2022/07/18 10:55:10;;;;;;;6.18;2.55;;;;;;;;;;4954490;28;20023;-74
2022/07/18 10:57:40;;;;;;;5.07;2.60;;;;;;;;;;4939102;28;20497;-73
2022/07/18 11:00:13;;;;;;;9.63;2.83;;;;;;;;;;4954793;28;20042;-73
2022/07/18 11:02:43;;;;;;;6.32;2.60;;;;;;;;;;4937898;28;20098;-73
2022/07/18 11:05:24;;;;;;;4.78;2.80;;;;;;;;;;4954912;28;20035;-73
2022/07/18 11:07:59;;;;;;;4.90;2.50;;;;;;;;;;4954899;28;20031;-73
2022/07/18 11:10:50;;;;;;;11.25;2.58;;;;;;;;;;4954979;28;20042;-72
2022/07/18 11:13:28;;;;;;;4.43;2.85;;;;;;;;;;4944176;28;20043;-74
2022/07/18 11:16:15;;;;;;;7.22;2.90;;;;;;;;;;4954931;28;20482;-74
2022/07/18 11:18:43;;;;;;;6.90;3.28;;;;;;;;;;4954443;28;20162;-71
2022/07/18 11:21:30;;;;;;;4.40;2.95;;;;;;;;;;4954261;28;20027;-71
2022/07/18 11:24:14;;;;;;;3.60;2.70;;;;;;;;;;4954875;28;20035;-69
2022/07/18 11:26:48;;;;;;;12.02;3.65;;;;;;;;;;4954881;28;20042;-70
2022/07/18 11:29:17;;;;;;;5.28;2.63;;;;;;;;;;4954795;29;20035;-72
2022/07/18 11:31:44;;;;;;;5.07;2.80;;;;;;;;;;4954928;29;20162;-73
2022/07/18 11:34:10;;;;;;;5.32;2.80;;;;;;;;;;4954533;29;20035;-73
2022/07/18 11:36:39;;;;;;;5.40;2.58;;;;;;;;;;4954430;28;20509;-72
2022/07/18 11:39:05;;;;;;;7.93;2.90;;;;;;;;;;4954798;29;20110;-71
2022/07/18 11:41:31;;;;;;;5.35;2.88;;;;;;;;;;4954340;29;20123;-74
2022/07/18 11:43:57;;;;;;;8.60;2.80;;;;;;;;;;4954709;29;20039;-73
2022/07/18 11:46:25;;;;;;;7.07;3.45;;;;;;;;;;4954470;29;20106;-71
2022/07/18 11:49:05;;;;;;;7.10;2.70;;;;;;;;;;4954371;28;20053;-71
2022/07/18 11:51:43;;;;;;;4.78;2.88;;;;;;;;;;4954341;28;20046;-71
2022/07/18 11:54:10;;;;;;;5.47;2.70;;;;;;;;;;4953397;28;20057;-70
2022/07/18 11:56:47;;;;;;;6.82;2.47;;;;;;;;;;4954270;29;20434;-74
2022/07/18 11:59:13;;;;;;;4.32;2.50;;;;;;;;;;4954216;28;20042;-73
2022/07/18 12:01:39;;;;;;;4.07;2.42;;;;;;;;;;4954012;28;20073;-75
2022/07/18 12:04:06;;;;;;;4.82;2.80;;;;;;;;;;4953790;28;20063;-73
2022/07/18 12:06:31;;;;;;;8.57;3.17;;;;;;;;;;4953906;28;20481;-74
2022/07/18 12:09:06;;;;;;;9.05;2.90;;;;;;;;;;4954224;28;20035;-73
2022/07/18 12:11:36;;;;;;;5.63;2.70;;;;;;;;;;4954606;28;20428;-72
2022/07/18 12:14:08;;;;;;;5.55;2.70;;;;;;;;;;4954402;29;20035;-70
2022/07/18 12:16:46;;;;;;;4.70;2.83;;;;;;;;;;4954592;29;20080;-74
2022/07/18 12:19:14;;;;;;;3.40;2.58;;;;;;;;;;4937134;29;20051;-72
2022/07/18 12:21:42;;;;;;;5.63;2.50;;;;;;;;;;4954004;28;20030;-73
2022/07/18 12:24:35;;;;;;;3.63;2.65;;;;;;;;;;4954329;29;20035;-72
2022/07/18 12:27:19;;;;;;;3.60;2.65;;;;;;;;;;4954564;29;20059;-75
2022/07/18 12:30:32;;;;;;;3.47;2.38;;;;;;;;;;4954399;29;20035;-73
2022/07/18 12:32:59;;;;;;;6.80;2.55;;;;;;;;;;4902087;29;20051;-72
2022/07/18 12:35:32;;;;;;;6.95;2.88;;;;;;;;;;4954382;29;20074;-72
2022/07/18 12:38:07;;;;;;;5.10;2.42;;;;;;;;;;4937226;29;20039;-73
2022/07/18 12:40:42;;;;;;;6.93;2.90;;;;;;;;;;4953879;28;20078;-72
2022/07/18 12:43:10;;;;;;;8.02;2.78;;;;;;;;;;4951283;28;20082;-75
2022/07/18 12:45:37;;;;;;;4.38;2.45;;;;;;;;;;4936837;29;20474;-72
2022/07/18 12:48:05;;;;;;;4.85;2.78;;;;;;;;;;4964486;28;20062;-73
2022/07/18 12:50:31;;;;;;;4.38;2.60;;;;;;;;;;4972599;28;20037;-76
2022/07/18 12:52:57;;;;;;;7.57;3.08;;;;;;;;;;4972249;28;20027;-72
2022/07/18 12:55:24;;;;;;;5.65;2.65;;;;;;;;;;4956590;28;20083;-74
2022/07/18 12:57:50;;;;;;;4.00;2.75;;;;;;;;;;4939691;29;20141;-71
2022/07/18 13:00:20;;;;;;;3.75;2.33;;;;;;;;;;4947939;29;20031;-71
2022/07/18 13:02:47;;;;;;;8.35;3.33;;;;;;;;;;4953713;29;20078;-71
2022/07/18 13:05:13;;;;;;;6.63;2.60;;;;;;;;;;4955790;28;20027;-70
2022/07/18 13:07:39;;;;;;;8.30;2.78;;;;;;;;;;4968089;28;20039;-71
2022/07/18 13:10:06;;;;;;;4.60;2.88;;;;;;;;;;4976519;28;20034;-73
2022/07/18 13:12:33;;;;;;;6.88;2.70;;;;;;;;;;4976706;28;20105;-72
2022/07/18 13:14:59;;;;;;;7.32;2.80;;;;;;;;;;4970672;28;20035;-70
2022/07/18 13:17:25;;;;;;;7.10;2.75;;;;;;;;;;4939831;29;20035;-70
2022/07/18 13:19:51;;;;;;;4.00;2.55;;;;;;;;;;4946867;28;20038;-74
2022/07/18 13:22:17;;;;;;;3.70;2.33;;;;;;;;;;4955475;29;20048;-71
2022/07/18 13:24:43;;;;;;;6.65;2.90;;;;;;;;;;4956295;29;20074;-73
2022/07/18 13:27:09;;;;;;;4.63;2.65;;;;;;;;;;4957038;29;20054;-72
2022/07/18 13:29:34;;;;;;;4.15;2.58;;;;;;;;;;4957097;29;20102;-72
2022/07/18 13:32:02;;;;;;;4.95;2.67;;;;;;;;;;4956847;29;20054;-72
2022/07/18 13:34:28;;;;;;;5.88;3.03;;;;;;;;;;4956916;29;20127;-73
2022/07/18 13:36:55;;;;;;;4.93;2.60;;;;;;;;;;4957410;29;20094;-74
2022/07/18 13:39:21;;;;;;;5.63;2.65;;;;;;;;;;4956744;29;20034;-75
2022/07/18 13:41:48;;;;;;;7.45;2.90;;;;;;;;;;4956708;29;20035;-74
2022/07/18 13:44:14;;;;;;;4.32;2.80;;;;;;;;;;4956705;29;20071;-73
2022/07/18 13:46:40;;;;;;;5.32;2.55;;;;;;;;;;4957098;29;20374;-73
2022/07/18 13:49:16;;;;;;;8.00;2.58;;;;;;;;;;4956837;29;20027;-74
2022/07/18 13:51:42;;;;;;;5.15;2.92;;;;;;;;;;4939617;29;20043;-71
2022/07/18 13:54:08;;;;;;;5.20;2.63;;;;;;;;;;4956316;29;20027;-74
2022/07/18 13:56:34;;;;;;;4.22;2.80;;;;;;;;;;4956742;29;20066;-73
2022/07/18 13:59:00;;;;;;;4.18;2.60;;;;;;;;;;4956446;29;20027;-73
2022/07/18 14:01:26;;;;;;;4.25;2.60;;;;;;;;;;4956314;29;20043;-73
2022/07/18 14:03:52;;;;;;;4.72;2.60;;;;;;;;;;4956406;29;20028;-74
2022/07/18 14:06:18;;;;;;;8.15;2.70;;;;;;;;;;4956387;29;20038;-74
2022/07/18 14:08:43;;;;;;;4.03;2.25;;;;;;;;;;4953737;28;20027;-73
2022/07/18 14:11:09;;;;;;;4.82;2.58;;;;;;;;;;4956460;28;20386;-73
2022/07/18 14:13:35;;;;;;;5.32;3.00;;;;;;;;;;4956444;28;20530;-73
2022/07/18 14:16:01;;;;;;;5.60;2.50;;;;;;;;;;4955021;28;20520;-74
2022/07/18 14:18:27;;;;;;;3.08;2.38;;;;;;;;;;4955666;29;20081;-74
2022/07/18 14:20:52;;;;;;;3.75;2.33;;;;;;;;;;4955071;28;20054;-72
2022/07/18 14:23:18;;;;;;;5.88;2.60;;;;;;;;;;4955969;28;20027;-72
2022/07/18 14:25:45;;;;;;;5.50;2.50;;;;;;;;;;4955678;29;20038;-71
2022/07/18 14:28:11;;;;;;;3.97;2.20;;;;;;;;;;4955780;29;20035;-71
2022/07/18 14:30:38;;;;;;;7.03;2.60;;;;;;;;;;4955735;28;20062;-71
2022/07/18 14:33:03;;;;;;;3.60;2.33;;;;;;;;;;4955513;28;20545;-71
2022/07/18 14:35:29;;;;;;;4.90;2.40;;;;;;;;;;4955738;28;20123;-70
2022/07/18 14:37:55;;;;;;;3.70;2.08;;;;;;;;;;4955730;28;20050;-69
2022/07/18 14:40:22;;;;;;;4.75;2.35;;;;;;;;;;4955636;29;20043;-70
2022/07/18 14:42:48;;;;;;;3.25;2.15;;;;;;;;;;4955719;29;20027;-70
2022/07/18 14:45:14;;;;;;;5.30;2.45;;;;;;;;;;4954551;28;20115;-72
2022/07/18 14:47:40;;;;;;;5.35;2.40;;;;;;;;;;4955280;28;20042;-71
2022/07/18 14:50:07;;;;;;;7.72;2.63;;;;;;;;;;4954948;29;20043;-68
2022/07/18 14:52:33;;;;;;;5.28;2.70;;;;;;;;;;4955296;28;20031;-70